Pagrindinis puslapis
METAR-TAF:

METAR-TAF

Oro uostai :

Bardufoss, Norvegija

platuma: 69-04N, ilguma: 018-32E, Aukštis: 7 m

Dabartinis oras

Ataskaita buvo paskelbta 33 minutes, ne 12:50 UTC
Vėjas 2 kt nuo kintamojo kryptimis
Temperatūra -11°C
Drėgmė 92%
Slėgis 993 hPa
Matomumas 10 km arba daugiau
Mažai debesys ne aukštis 3000 ft
Su prošvaistėmis ne aukštis 10000 ft

METAR: ENDU 161250Z VRB02KT 9999 FEW030 BKN100 M11/M12 Q0993 NOSIG RMK WIND 1100FT 11004KT WIND 2200FT 12007KT

Laikas: 14:23 (13:23 UTC)

Prognozė

Prognozė galioja nuo 16 metu 12 UTC su 17 metu 12 UTC
Vėjas 5 kt iš Rytų/Pietryčių
Matomumas 10 km arba daugiau
Mažai debesys ne aukštis 3000 ft
Išsisklaidę debesys ne aukštis 6000 ft
Laikinai
nuo 16 metu 14 UTC su 16 metu 24 UTC
Matomumas: 4000 m
ne aukštis 1400 ft
sniegas

TAF: ENDU 1612/1712 12005KT 9999 FEW030 SCT060 TEMPO 1614/1624 4000 -SN VV014

Orai ataskaitas ir orų prognozės (METAR, TAF).

turimą stotys yra geltonos ir raudonos taškus žemėlapyje.

Perkelti pele per norėdami pamatyti stoties vardą.

Tada spustelėkite, norėdami matyti oro stebėjimo ir prognozės.

Norėdami pakeisti žemėlapį: spustelėkite ant žalios mygtukų su juodo kryžiaus žemyn,; žalią mygtuką su brūkšneliu, jei norite nutolinti; arba žalių rodyklių gretimoms žemėlapius.


METAR-TAF: